RPB weather

Belleville Municipal Airport
Belleville, Kansas, United States

Public forecast

Using degrees Fahrenheit for public forecast. Weather courtesy of forecast.io.

METAR (pilot weather report)

Closest report is Blosser Municipal Airport, 16.1 nm (29.9 km) S. Retrieved 2019/03/27 01:55 UTC (9 minutes ago):

KCNK 270155Z AUTO 17011KT 10SM CLR 14/07 A3016 RMK AO2 SLP213 T01440067

TAF (pilot weather forecast)

Forecast is more than 12 hours old.

Closest forecast is Manhattan Regional Airport, 61.2 nm (113.4 km) SE. Retrieved 2019/03/26 00:22 UTC (1 day ago):

TAF KMHK 262320Z 2700/2724 18009KT P6SM FEW250 FM270700 19008KT P6SM FEW250 WS020/20045KT FM271500 19014G22KT P6SM SCT060